createdAt,value
2018-11-27T00:00:44.969Z,12.13
2018-11-27T00:03:14.602Z,12.57
2018-11-27T00:05:56.477Z,10.73
2018-11-27T00:08:38.104Z,10.80
2018-11-27T00:11:20.174Z,10.93
2018-11-27T00:14:07.857Z,12.17
2018-11-27T00:16:50.265Z,11.87
2018-11-27T00:19:31.804Z,11.03
2018-11-27T00:22:13.210Z,10.80
2018-11-27T00:24:43.076Z,10.73
2018-11-27T00:27:24.492Z,10.63
2018-11-27T00:29:54.394Z,11.03
2018-11-27T00:32:24.264Z,9.23
2018-11-27T00:35:21.813Z,10.17
2018-11-27T00:38:04.329Z,8.80
2018-11-27T00:40:46.081Z,10.50
2018-11-27T00:43:27.610Z,9.73
2018-11-27T00:46:09.424Z,10.80
2018-11-27T00:48:57.660Z,10.13
2018-11-27T00:51:39.828Z,9.83
2018-11-27T00:54:21.619Z,10.23
2018-11-27T00:57:03.332Z,9.27
2018-11-27T00:59:45.010Z,10.97
2018-11-27T01:02:32.935Z,10.37
2018-11-27T01:05:15.458Z,12.00
2018-11-27T01:07:56.846Z,11.40
2018-11-27T01:10:38.428Z,10.83
2018-11-27T01:13:08.301Z,11.33
2018-11-27T01:15:49.887Z,11.03
2018-11-27T01:18:31.200Z,10.53
2018-11-27T01:21:19.081Z,10.30
2018-11-27T01:24:01.201Z,11.53
2018-11-27T01:26:43.247Z,11.50
2018-11-27T01:29:25.013Z,10.33
2018-11-27T01:32:13.531Z,9.60
2018-11-27T01:34:55.048Z,9.90
2018-11-27T01:37:43.817Z,10.00
2018-11-27T01:40:26.727Z,9.23
2018-11-27T01:42:57.607Z,10.40
2018-11-27T01:45:39.844Z,9.30
2018-11-27T01:48:21.420Z,9.63
2018-11-27T01:51:03.121Z,10.13
2018-11-27T01:53:45.125Z,10.27
2018-11-27T01:56:26.961Z,9.20
2018-11-27T01:59:14.661Z,8.70
2018-11-27T02:01:56.453Z,8.07
2018-11-27T02:04:38.192Z,8.03
2018-11-27T02:07:19.730Z,7.27
2018-11-27T02:10:01.809Z,7.53
2018-11-27T02:12:31.650Z,8.03
2018-11-27T02:15:15.390Z,8.57
2018-11-27T02:17:57.617Z,8.40
2018-11-27T02:20:27.538Z,7.77
2018-11-27T02:23:09.890Z,7.50
2018-11-27T02:25:40.216Z,6.70
2018-11-27T02:28:22.532Z,6.73
2018-11-27T02:31:04.070Z,7.10
2018-11-27T02:33:45.873Z,8.37
2018-11-27T02:36:15.926Z,7.13
2018-11-27T02:38:45.857Z,7.50
2018-11-27T02:41:15.795Z,6.67
2018-11-27T02:44:03.464Z,6.50
2018-11-27T02:46:33.266Z,5.93
2018-11-27T02:49:15.758Z,6.77
2018-11-27T02:51:45.617Z,5.67
2018-11-27T02:54:27.263Z,5.40
2018-11-27T02:56:57.131Z,6.00
2018-11-27T02:59:39.254Z,6.13
2018-11-27T03:02:21.201Z,6.10
2018-11-27T03:05:03.711Z,5.33
2018-11-27T03:07:33.556Z,6.07
2018-11-27T03:10:03.846Z,5.00
2018-11-27T03:12:45.521Z,5.17
2018-11-27T03:15:27.354Z,5.13
2018-11-27T03:17:57.804Z,5.30
2018-11-27T03:20:39.835Z,5.97
2018-11-27T03:23:33.384Z,5.17
2018-11-27T03:26:14.887Z,5.40
2018-11-27T03:28:56.750Z,5.43
2018-11-27T03:31:38.382Z,5.40
2018-11-27T03:34:19.874Z,6.07
2018-11-27T03:37:08.045Z,5.73
2018-11-27T03:39:49.517Z,4.40
2018-11-27T03:42:31.261Z,4.90
2018-11-27T03:45:01.585Z,5.00
2018-11-27T03:47:43.753Z,4.67
2018-11-27T03:50:25.046Z,4.67
2018-11-27T03:53:06.527Z,5.13
2018-11-27T03:55:54.277Z,4.53
2018-11-27T03:58:36.973Z,5.07
2018-11-27T04:01:07.281Z,5.20
2018-11-27T04:03:48.782Z,5.10
2018-11-27T04:06:18.925Z,5.27
2018-11-27T04:09:00.611Z,5.40
2018-11-27T04:11:30.358Z,4.83
2018-11-27T04:14:11.854Z,4.37
2018-11-27T04:16:54.060Z,4.27
2018-11-27T04:19:36.238Z,4.93
2018-11-27T04:22:18.073Z,4.73
2018-11-27T04:24:59.654Z,4.23
2018-11-27T04:27:29.334Z,4.90
2018-11-27T04:30:14.653Z,4.47
2018-11-27T04:32:44.370Z,4.03
2018-11-27T04:35:26.656Z,5.10
2018-11-27T04:38:08.840Z,4.63
2018-11-27T04:40:50.509Z,4.57
2018-11-27T04:43:20.820Z,3.00
2018-11-27T04:45:50.810Z,4.27
2018-11-27T04:48:20.774Z,4.47
2018-11-27T04:54:03.558Z,4.60
2018-11-27T04:56:33.683Z,4.60
2018-11-27T04:59:22.053Z,5.03
2018-11-27T05:02:03.361Z,5.40
2018-11-27T05:04:33.510Z,4.50
2018-11-27T05:07:03.495Z,5.73
2018-11-27T05:09:33.461Z,4.40
2018-11-27T05:12:15.590Z,4.67
2018-11-27T05:14:45.531Z,4.77
2018-11-27T05:17:15.510Z,4.63
2018-11-27T05:19:45.470Z,4.80
2018-11-27T05:24:56.917Z,4.57
2018-11-27T05:27:54.609Z,4.87
2018-11-27T05:30:26.053Z,4.90
2018-11-27T05:32:56.279Z,4.77
2018-11-27T05:35:29.827Z,5.23
2018-11-27T05:38:01.603Z,4.23
2018-11-27T05:40:31.572Z,4.30
2018-11-27T05:43:12.470Z,3.93
2018-11-27T05:45:42.341Z,4.93
2018-11-27T05:48:12.179Z,4.40
2018-11-27T05:50:42.092Z,4.53
2018-11-27T05:53:11.777Z,4.83
2018-11-27T05:55:42.251Z,4.77
2018-11-27T05:58:24.230Z,4.40
2018-11-27T06:00:54.231Z,4.00
2018-11-27T06:03:24.244Z,4.60
2018-11-27T06:05:54.214Z,4.47
2018-11-27T06:08:24.155Z,4.37
2018-11-27T06:10:54.091Z,4.30
2018-11-27T06:13:24.934Z,4.73
2018-11-27T06:15:54.849Z,4.97
2018-11-27T06:18:24.836Z,5.00
2018-11-27T06:20:54.756Z,4.53
2018-11-27T06:23:24.745Z,4.70
2018-11-27T06:25:54.699Z,4.30
2018-11-27T06:28:24.650Z,4.50
2018-11-27T06:30:54.581Z,4.27
2018-11-27T06:33:24.490Z,4.40
2018-11-27T06:35:54.477Z,4.80
2018-11-27T06:38:24.608Z,4.03
2018-11-27T06:40:54.560Z,4.10
2018-11-27T06:43:24.456Z,4.37
2018-11-27T06:45:54.407Z,4.83
2018-11-27T06:48:24.308Z,4.37
2018-11-27T06:50:54.238Z,4.30
2018-11-27T06:53:24.162Z,4.80
2018-11-27T06:55:54.123Z,4.57
2018-11-27T06:58:24.080Z,4.97
2018-11-27T07:00:54.026Z,5.03
2018-11-27T07:03:23.933Z,5.87
2018-11-27T07:05:53.883Z,5.07
2018-11-27T07:08:23.854Z,5.43
2018-11-27T07:10:53.829Z,5.13
2018-11-27T07:13:25.437Z,5.10
2018-11-27T07:15:55.150Z,5.60
2018-11-27T07:18:24.894Z,6.17
2018-11-27T07:20:54.828Z,4.83
2018-11-27T07:23:24.704Z,5.40
2018-11-27T07:25:54.658Z,4.27
2018-11-27T07:28:24.547Z,4.97
2018-11-27T07:30:54.448Z,5.63
2018-11-27T07:33:24.319Z,5.17
2018-11-27T07:35:54.224Z,6.43
2018-11-27T07:38:24.164Z,5.57
2018-11-27T07:40:54.097Z,6.17
2018-11-27T07:43:24.117Z,5.77
2018-11-27T07:48:23.831Z,6.10
2018-11-27T07:50:53.667Z,6.77
2018-11-27T07:53:23.816Z,6.50
2018-11-27T07:55:54.197Z,5.83
2018-11-27T07:58:24.132Z,5.43
2018-11-27T08:00:54.090Z,5.10
2018-11-27T08:03:24.059Z,6.67
2018-11-27T08:05:53.958Z,5.50
2018-11-27T08:08:23.864Z,6.27
2018-11-27T08:10:53.783Z,5.47
2018-11-27T08:13:35.823Z,6.70
2018-11-27T08:16:24.447Z,6.33
2018-11-27T08:19:22.738Z,7.20
2018-11-27T08:22:11.227Z,6.03
2018-11-27T08:24:52.911Z,5.37
2018-11-27T08:27:34.201Z,5.40
2018-11-27T08:30:04.444Z,5.93
2018-11-27T08:32:46.012Z,5.57
2018-11-27T08:35:28.457Z,6.17
2018-11-27T08:38:16.515Z,5.73
2018-11-27T08:41:05.080Z,5.00
2018-11-27T08:43:46.923Z,6.30
2018-11-27T08:46:16.851Z,5.60
2018-11-27T08:48:46.664Z,5.93
2018-11-27T08:51:16.616Z,5.87
2018-11-27T08:53:58.709Z,6.40
2018-11-27T08:56:28.983Z,5.40
2018-11-27T08:58:59.103Z,6.17
2018-11-27T09:01:40.551Z,5.07
2018-11-27T09:04:10.934Z,5.87
2018-11-27T09:06:52.530Z,5.23
2018-11-27T09:09:34.289Z,5.77
2018-11-27T09:12:16.075Z,5.30
2018-11-27T09:14:46.139Z,5.23
2018-11-27T09:17:28.394Z,5.90
2018-11-27T09:19:58.366Z,5.60
2018-11-27T09:22:28.346Z,6.17
2018-11-27T09:24:58.257Z,6.13
2018-11-27T09:27:28.216Z,5.87
2018-11-27T09:29:58.114Z,6.13
2018-11-27T09:32:39.407Z,6.00
2018-11-27T09:35:09.401Z,5.60
2018-11-27T09:37:51.053Z,5.60
2018-11-27T09:40:33.248Z,5.63
2018-11-27T09:43:14.855Z,5.80
2018-11-27T09:45:45.733Z,7.10
2018-11-27T09:48:15.593Z,6.27
2018-11-27T09:50:45.497Z,6.33
2018-11-27T09:53:16.447Z,7.47
2018-11-27T09:55:46.293Z,6.23
2018-11-27T09:58:16.228Z,5.60
2018-11-27T10:00:46.088Z,6.07
2018-11-27T10:03:16.820Z,8.03
2018-11-27T10:05:46.691Z,7.97
2018-11-27T10:08:16.637Z,6.77
2018-11-27T10:10:46.569Z,7.60
2018-11-27T10:13:16.508Z,7.47
2018-11-27T10:15:46.387Z,10.23
2018-11-27T10:18:16.271Z,8.73
2018-11-27T10:20:46.151Z,12.37
2018-11-27T10:23:16.438Z,9.00
2018-11-27T10:25:46.325Z,9.43
2018-11-27T10:28:16.300Z,6.93
2018-11-27T10:31:05.984Z,6.13
2018-11-27T10:33:36.244Z,5.63
2018-11-27T10:36:06.212Z,5.83
2018-11-27T10:38:36.165Z,5.27
2018-11-27T10:41:18.940Z,8.87
2018-11-27T10:44:01.278Z,6.27
2018-11-27T10:46:31.151Z,5.33
2018-11-27T10:49:13.728Z,5.77
2018-11-27T10:51:43.619Z,5.83
2018-11-27T10:54:25.695Z,5.97
2018-11-27T10:56:55.820Z,5.40
2018-11-27T10:59:37.747Z,5.63
2018-11-27T11:02:24.387Z,6.63
2018-11-27T11:04:54.696Z,5.47
2018-11-27T11:07:36.966Z,5.40
2018-11-27T11:10:18.753Z,6.60
2018-11-27T11:13:01.310Z,6.37
2018-11-27T11:15:31.250Z,7.87
2018-11-27T11:18:13.142Z,7.77
2018-11-27T11:20:43.562Z,6.53
2018-11-27T11:23:26.014Z,6.70
2018-11-27T11:26:08.310Z,6.07
2018-11-27T11:28:38.282Z,5.90
2018-11-27T11:31:08.492Z,6.47
2018-11-27T11:33:51.504Z,6.50
2018-11-27T11:36:21.361Z,5.73
2018-11-27T11:39:03.188Z,7.17
2018-11-27T11:41:45.342Z,5.10
2018-11-27T11:44:15.449Z,5.27
2018-11-27T11:46:57.365Z,6.40
2018-11-27T11:49:39.185Z,5.90
2018-11-27T11:52:21.365Z,5.53
2018-11-27T11:55:03.235Z,5.90
2018-11-27T11:57:53.758Z,5.63
2018-11-27T12:00:43.166Z,5.67
2018-11-27T12:03:25.136Z,6.30
2018-11-27T12:05:55.012Z,5.70
2018-11-27T12:08:36.651Z,6.23
2018-11-27T12:11:06.804Z,5.40
2018-11-27T12:13:49.125Z,5.57
2018-11-27T12:16:30.814Z,5.07
2018-11-27T12:19:01.249Z,5.30
2018-11-27T12:21:43.375Z,5.47
2018-11-27T12:24:25.453Z,4.77
2018-11-27T12:26:55.547Z,5.10
2018-11-27T12:29:25.504Z,4.50
2018-11-27T12:32:07.916Z,4.27
2018-11-27T12:34:37.957Z,4.53
2018-11-27T12:37:07.901Z,5.00
2018-11-27T12:39:37.861Z,4.93
2018-11-27T12:42:20.256Z,4.73
2018-11-27T12:45:02.649Z,4.87
2018-11-27T12:47:32.558Z,5.53
2018-11-27T12:50:15.395Z,5.53
2018-11-27T12:55:39.269Z,5.60
2018-11-27T12:58:21.221Z,4.60
2018-11-27T13:01:03.115Z,5.23
2018-11-27T13:03:46.304Z,5.70
2018-11-27T13:06:35.442Z,5.57
2018-11-27T13:09:17.995Z,4.67
2018-11-27T13:11:48.008Z,4.90
2018-11-27T13:14:29.768Z,5.27
2018-11-27T13:17:11.825Z,5.87
2018-11-27T13:19:42.054Z,4.87
2018-11-27T13:22:12.114Z,5.13
2018-11-27T13:24:54.346Z,4.97
2018-11-27T13:27:36.372Z,4.70
2018-11-27T13:30:21.220Z,5.07
2018-11-27T13:33:06.312Z,5.27
2018-11-27T13:35:36.650Z,4.87
2018-11-27T13:38:18.374Z,4.73
2018-11-27T13:41:00.626Z,5.30
2018-11-27T13:43:43.015Z,5.13
2018-11-27T13:46:24.949Z,5.33
2018-11-27T13:49:07.136Z,5.30
2018-11-27T13:51:56.454Z,5.00
2018-11-27T13:54:26.412Z,5.43
2018-11-27T13:56:56.344Z,5.13
2018-11-27T13:59:26.373Z,4.23
2018-11-27T14:02:09.293Z,5.00
2018-11-27T14:04:51.569Z,4.50
2018-11-27T14:07:33.400Z,5.57
2018-11-27T14:10:15.640Z,5.37
2018-11-27T14:12:58.158Z,5.10
2018-11-27T14:15:39.821Z,4.87
2018-11-27T14:18:10.070Z,5.30
2018-11-27T14:20:51.925Z,5.53
2018-11-27T14:23:34.394Z,5.30
2018-11-27T14:26:16.146Z,4.93
2018-11-27T14:28:57.949Z,5.23
2018-11-27T14:31:28.313Z,4.77
2018-11-27T14:34:10.194Z,5.47
2018-11-27T14:36:52.278Z,5.00
2018-11-27T14:39:34.221Z,4.10
2018-11-27T14:42:04.179Z,4.33
2018-11-27T14:44:46.245Z,4.90
2018-11-27T14:47:16.219Z,3.43
2018-11-27T14:49:46.190Z,5.07
2018-11-27T14:52:28.346Z,4.20
2018-11-27T14:54:58.291Z,4.30
2018-11-27T14:57:40.211Z,4.30
2018-11-27T15:00:22.589Z,5.30
2018-11-27T15:03:05.279Z,4.70
2018-11-27T15:05:54.423Z,4.80
2018-11-27T15:08:24.424Z,5.10
2018-11-27T15:11:06.735Z,4.40
2018-11-27T15:13:48.957Z,3.70
2018-11-27T15:16:30.375Z,3.20
2018-11-27T15:19:00.600Z,3.87
2018-11-27T15:21:42.125Z,3.77
2018-11-27T15:24:23.673Z,3.33
2018-11-27T15:26:53.730Z,2.97
2018-11-27T15:29:23.704Z,3.63
2018-11-27T15:31:53.631Z,3.87
2018-11-27T15:34:35.298Z,4.07
2018-11-27T15:37:16.862Z,3.33
2018-11-27T15:39:46.900Z,3.73
2018-11-27T15:42:16.907Z,4.00
2018-11-27T15:44:59.417Z,3.57
2018-11-27T15:47:41.317Z,3.80
2018-11-27T15:50:23.264Z,3.60
2018-11-27T15:53:05.729Z,3.77
2018-11-27T15:55:58.627Z,4.13
2018-11-27T15:58:40.202Z,3.80
2018-11-27T16:01:22.218Z,4.40
2018-11-27T16:04:04.317Z,3.47
2018-11-27T16:06:34.435Z,3.97
2018-11-27T16:09:16.491Z,3.20
2018-11-27T16:11:58.953Z,3.63
2018-11-27T16:14:29.426Z,3.40
2018-11-27T16:16:59.440Z,3.33
2018-11-27T16:19:29.682Z,3.60
2018-11-27T16:21:59.598Z,3.20
2018-11-27T16:24:29.547Z,3.50
2018-11-27T16:26:59.514Z,3.70
2018-11-27T16:29:50.118Z,3.87
2018-11-27T16:32:31.401Z,3.60
2018-11-27T16:35:14.425Z,3.60
2018-11-27T16:37:46.353Z,3.37
2018-11-27T16:40:18.838Z,3.07
2018-11-27T16:42:48.854Z,3.53
2018-11-27T16:45:39.184Z,3.10
2018-11-27T16:48:09.196Z,3.00
2018-11-27T16:50:39.025Z,3.13
2018-11-27T16:53:09.251Z,3.17
2018-11-27T16:55:39.427Z,3.20
2018-11-27T16:58:09.350Z,3.20
2018-11-27T17:00:39.279Z,3.03
2018-11-27T17:03:10.030Z,3.20
2018-11-27T17:05:52.389Z,3.03
2018-11-27T17:08:22.757Z,3.50
2018-11-27T17:10:53.046Z,3.20
2018-11-27T17:13:23.005Z,3.97
2018-11-27T17:15:53.207Z,3.70
2018-11-27T17:18:23.578Z,3.90
2018-11-27T17:20:53.521Z,3.80
2018-11-27T17:23:23.470Z,4.90
2018-11-27T17:26:11.750Z,4.07
2018-11-27T17:28:41.719Z,3.83
2018-11-27T17:31:14.864Z,4.57
2018-11-27T17:34:05.143Z,3.83
2018-11-27T17:36:36.045Z,3.93
2018-11-27T17:39:11.422Z,3.87
2018-11-27T17:41:41.568Z,4.23
2018-11-27T17:44:17.135Z,4.33
2018-11-27T17:46:47.124Z,4.47
2018-11-27T17:49:17.127Z,4.40
2018-11-27T17:51:47.152Z,4.83
2018-11-27T17:54:17.160Z,4.73
2018-11-27T17:56:47.207Z,7.40
2018-11-27T17:59:17.179Z,8.73
2018-11-27T18:01:47.220Z,6.67
2018-11-27T18:04:17.153Z,7.30
2018-11-27T18:06:47.110Z,7.13
2018-11-27T18:09:17.082Z,6.57
2018-11-27T18:11:47.033Z,5.70
2018-11-27T18:14:16.935Z,5.57
2018-11-27T18:16:46.907Z,5.37
2018-11-27T18:19:16.868Z,5.93
2018-11-27T18:21:46.852Z,5.83
2018-11-27T18:24:16.830Z,5.93
2018-11-27T18:26:46.760Z,6.60
2018-11-27T18:29:16.738Z,5.83
2018-11-27T18:31:46.713Z,7.73
2018-11-27T18:34:28.917Z,6.27
2018-11-27T18:36:58.891Z,7.47
2018-11-27T18:39:29.111Z,8.00
2018-11-27T18:42:10.825Z,7.20
2018-11-27T18:44:40.905Z,7.90
2018-11-27T18:47:11.452Z,8.17
2018-11-27T18:49:41.401Z,6.87
2018-11-27T18:52:22.904Z,7.17
2018-11-27T18:54:53.340Z,6.20
2018-11-27T18:57:23.322Z,8.30
2018-11-27T18:59:53.311Z,8.30
2018-11-27T19:02:23.326Z,7.57
2018-11-27T19:04:53.370Z,7.23
2018-11-27T19:07:23.365Z,6.70
2018-11-27T19:09:53.368Z,6.70
2018-11-27T19:12:23.339Z,6.13
2018-11-27T19:14:53.296Z,6.43
2018-11-27T19:17:23.161Z,6.70
2018-11-27T19:20:05.094Z,6.90
2018-11-27T19:22:35.328Z,7.40
2018-11-27T19:25:07.028Z,7.77
2018-11-27T19:27:37.045Z,6.83
2018-11-27T19:30:15.999Z,6.97
2018-11-27T19:32:44.768Z,6.17
2018-11-27T19:35:17.479Z,6.50
2018-11-27T19:37:48.350Z,6.33
2018-11-27T19:40:20.061Z,6.40
2018-11-27T19:42:50.227Z,6.17
2018-11-27T19:45:26.119Z,6.07
2018-11-27T19:47:56.677Z,6.00
2018-11-27T19:50:28.705Z,6.23
2018-11-27T19:52:58.847Z,5.73
2018-11-27T19:55:28.866Z,6.70
2018-11-27T19:57:58.928Z,6.63
2018-11-27T20:00:29.974Z,5.93
2018-11-27T20:03:00.397Z,6.27
2018-11-27T20:05:42.510Z,6.53
2018-11-27T20:08:16.587Z,5.03
2018-11-27T20:10:46.780Z,6.40
2018-11-27T20:13:17.000Z,6.80
2018-11-27T20:15:46.999Z,7.00
2018-11-27T20:18:17.012Z,7.00
2018-11-27T20:20:47.014Z,6.33
2018-11-27T20:23:17.003Z,7.03
2018-11-27T20:25:46.976Z,6.07
2018-11-27T20:28:16.964Z,7.30
2018-11-27T20:30:47.047Z,7.13
2018-11-27T20:33:17.313Z,7.53
2018-11-27T20:35:47.348Z,6.73
2018-11-27T20:38:17.359Z,6.97
2018-11-27T20:40:48.455Z,6.53
2018-11-27T20:43:17.602Z,7.63
2018-11-27T20:45:47.648Z,8.67
2018-11-27T20:48:19.958Z,6.87
2018-11-27T20:50:52.341Z,8.00
2018-11-27T20:53:22.945Z,7.07
2018-11-27T20:55:53.018Z,6.53
2018-11-27T20:58:23.034Z,6.43
2018-11-27T21:00:53.823Z,6.60
2018-11-27T21:03:23.901Z,7.20
2018-11-27T21:05:54.004Z,6.57
2018-11-27T21:08:23.969Z,6.87
2018-11-27T21:10:54.081Z,7.63
2018-11-27T21:13:24.091Z,6.90
2018-11-27T21:15:54.167Z,7.97
2018-11-27T21:18:24.138Z,7.10
2018-11-27T21:20:54.160Z,7.70
2018-11-27T21:23:24.206Z,7.40
2018-11-27T21:25:56.434Z,7.00
2018-11-27T21:28:24.262Z,7.30
2018-11-27T21:30:54.254Z,6.83
2018-11-27T21:33:24.656Z,6.90
2018-11-27T21:35:54.645Z,6.70
2018-11-27T21:38:24.694Z,7.47
2018-11-27T21:40:54.684Z,7.97
2018-11-27T21:43:24.707Z,7.47
2018-11-27T21:45:54.705Z,6.87
2018-11-27T21:48:24.790Z,6.60
2018-11-27T21:50:58.714Z,6.23
2018-11-27T21:53:28.887Z,7.33
2018-11-27T21:55:58.876Z,7.07
2018-11-27T21:58:29.128Z,7.07
2018-11-27T22:00:59.124Z,5.67
2018-11-27T22:03:29.088Z,6.37
2018-11-27T22:05:59.109Z,6.27
2018-11-27T22:08:29.131Z,6.83
2018-11-27T22:10:59.112Z,6.30
2018-11-27T22:13:29.117Z,6.70
2018-11-27T22:15:59.167Z,6.07
2018-11-27T22:18:29.149Z,6.33
2018-11-27T22:20:59.216Z,6.60
2018-11-27T22:23:29.246Z,6.13
2018-11-27T22:25:59.314Z,7.37
2018-11-27T22:28:29.333Z,6.60
2018-11-27T22:30:59.376Z,6.87
2018-11-27T22:33:29.389Z,6.93
2018-11-27T22:35:59.385Z,7.27
2018-11-27T22:38:29.329Z,6.97
2018-11-27T22:40:59.357Z,6.90
2018-11-27T22:43:29.268Z,6.37
2018-11-27T22:45:59.315Z,7.33
2018-11-27T22:48:29.302Z,7.40
2018-11-27T22:50:59.266Z,6.90
2018-11-27T22:53:29.261Z,6.53
2018-11-27T22:56:00.314Z,6.87
2018-11-27T22:58:29.278Z,7.93
2018-11-27T23:00:59.297Z,8.17
2018-11-27T23:03:29.309Z,6.60
2018-11-27T23:05:59.350Z,7.80
2018-11-27T23:08:29.326Z,7.67
2018-11-27T23:10:59.323Z,7.33
2018-11-27T23:13:29.327Z,6.77
2018-11-27T23:15:59.348Z,6.53
2018-11-27T23:18:29.246Z,7.63
2018-11-27T23:20:59.185Z,7.53
2018-11-27T23:23:29.223Z,6.87
2018-11-27T23:25:59.285Z,7.17
2018-11-27T23:28:29.739Z,7.60
2018-11-27T23:30:59.845Z,7.50
2018-11-27T23:33:30.356Z,6.77
2018-11-27T23:36:00.366Z,7.40
2018-11-27T23:38:30.312Z,7.40
2018-11-27T23:41:00.285Z,7.20
2018-11-27T23:43:30.276Z,7.00
2018-11-27T23:46:00.366Z,7.07
2018-11-27T23:48:30.364Z,6.73
2018-11-27T23:51:00.394Z,6.77
2018-11-27T23:53:30.342Z,7.43
2018-11-27T23:56:00.301Z,7.10
2018-11-27T23:58:30.295Z,6.93
